sensor_id;sensor_type;location;lat;lon;timestamp;P1;durP1;ratioP1;P2;durP2;ratioP2
15498;SDS011;7851;52.260;6.030;2022-07-10T00:03:05;3.6;;;1.9;;
15498;SDS011;7851;52.260;6.030;2022-07-10T00:03:05;3;;;1.5;;
15498;SDS011;7851;52.260;6.030;2022-07-10T00:03:10;3.6;;;1.7;;
15498;SDS011;7851;52.260;6.030;2022-07-10T00:03:42;3.3;;;1.7;;
15498;SDS011;7851;52.260;6.030;2022-07-10T00:04:42;5.1;;;1.7;;
15498;SDS011;7851;52.260;6.030;2022-07-10T00:05:42;3.5;;;1.6;;
15498;SDS011;7851;52.260;6.030;2022-07-10T00:06:42;3;;;1.8;;
15498;SDS011;7851;52.260;6.030;2022-07-10T00:07:42;4.1;;;2.2;;
15498;SDS011;7851;52.260;6.030;2022-07-10T00:08:42;4.4;;;1.7;;
15498;SDS011;7851;52.260;6.030;2022-07-10T00:09:42;3;;;1.6;;
15498;SDS011;7851;52.260;6.030;2022-07-10T00:10:42;2.9;;;1.7;;
15498;SDS011;7851;52.260;6.030;2022-07-10T00:11:42;3.7;;;1.9;;
15498;SDS011;7851;52.260;6.030;2022-07-10T00:12:42;5.1;;;1.9;;
15498;SDS011;7851;52.260;6.030;2022-07-10T00:13:42;3.3;;;2.1;;
15498;SDS011;7851;52.260;6.030;2022-07-10T00:14:42;5;;;2.2;;
15498;SDS011;7851;52.260;6.030;2022-07-10T00:15:42;3;;;1.7;;
15498;SDS011;7851;52.260;6.030;2022-07-10T00:16:43;3.9;;;1.8;;
15498;SDS011;7851;52.260;6.030;2022-07-10T00:17:42;3.4;;;1.8;;
15498;SDS011;7851;52.260;6.030;2022-07-10T00:18:42;4.5;;;1.9;;
15498;SDS011;7851;52.260;6.030;2022-07-10T00:19:42;2.3;;;1.7;;
15498;SDS011;7851;52.260;6.030;2022-07-10T00:20:42;3.3;;;1.9;;
15498;SDS011;7851;52.260;6.030;2022-07-10T00:21:42;4.1;;;1.9;;
15498;SDS011;7851;52.260;6.030;2022-07-10T00:22:42;2.6;;;1.6;;
15498;SDS011;7851;52.260;6.030;2022-07-10T00:23:42;4.5;;;2;;
15498;SDS011;7851;52.260;6.030;2022-07-10T00:24:42;4.7;;;1.8;;
15498;SDS011;7851;52.260;6.030;2022-07-10T00:25:42;5.6;;;1.8;;
15498;SDS011;7851;52.260;6.030;2022-07-10T00:26:42;5.2;;;1.9;;
15498;SDS011;7851;52.260;6.030;2022-07-10T00:27:44;5.4;;;2;;
15498;SDS011;7851;52.260;6.030;2022-07-10T00:28:42;3.4;;;1.6;;
15498;SDS011;7851;52.260;6.030;2022-07-10T00:29:42;2.6;;;1.7;;
15498;SDS011;7851;52.260;6.030;2022-07-10T00:30:42;3.1;;;1.7;;
15498;SDS011;7851;52.260;6.030;2022-07-10T00:31:42;2;;;1.6;;
15498;SDS011;7851;52.260;6.030;2022-07-10T00:32:42;2.8;;;1.6;;
15498;SDS011;7851;52.260;6.030;2022-07-10T00:33:42;2.6;;;1.3;;
15498;SDS011;7851;52.260;6.030;2022-07-10T00:34:42;5.2;;;1.8;;
15498;SDS011;7851;52.260;6.030;2022-07-10T00:35:42;4.9;;;1.6;;
15498;SDS011;7851;52.260;6.030;2022-07-10T00:36:42;4.8;;;1.8;;
15498;SDS011;7851;52.260;6.030;2022-07-10T00:37:42;2.7;;;1.7;;
15498;SDS011;7851;52.260;6.030;2022-07-10T00:38:42;5.7;;;1.8;;
15498;SDS011;7851;52.260;6.030;2022-07-10T00:39:42;3;;;1.5;;
15498;SDS011;7851;52.260;6.030;2022-07-10T00:40:42;2.4;;;1.4;;
15498;SDS011;7851;52.260;6.030;2022-07-10T00:41:42;4.4;;;1.6;;
15498;SDS011;7851;52.260;6.030;2022-07-10T00:42:42;5.7;;;1.8;;
15498;SDS011;7851;52.260;6.030;2022-07-10T00:43:58;3;;;1.7;;
15498;SDS011;7851;52.260;6.030;2022-07-10T00:44:42;4.6;;;1.8;;
15498;SDS011;7851;52.260;6.030;2022-07-10T00:45:42;3.7;;;1.6;;
15498;SDS011;7851;52.260;6.030;2022-07-10T00:46:42;4.4;;;1.6;;
15498;SDS011;7851;52.260;6.030;2022-07-10T00:47:42;3.7;;;1.5;;
15498;SDS011;7851;52.260;6.030;2022-07-10T00:48:42;3.2;;;1.6;;
15498;SDS011;7851;52.260;6.030;2022-07-10T00:49:42;3;;;1.8;;
15498;SDS011;7851;52.260;6.030;2022-07-10T00:50:42;2.7;;;1.6;;
15498;SDS011;7851;52.260;6.030;2022-07-10T00:51:42;5.4;;;1.7;;
15498;SDS011;7851;52.260;6.030;2022-07-10T00:52:42;2.6;;;1.5;;
15498;SDS011;7851;52.260;6.030;2022-07-10T00:53:42;3.1;;;1.4;;
15498;SDS011;7851;52.260;6.030;2022-07-10T00:54:42;6.5;;;1.7;;
15498;SDS011;7851;52.260;6.030;2022-07-10T00:55:42;1.8;;;1.4;;
15498;SDS011;7851;52.260;6.030;2022-07-10T00:56:42;2.1;;;1.6;;
15498;SDS011;7851;52.260;6.030;2022-07-10T00:57:42;5.1;;;1.7;;
15498;SDS011;7851;52.260;6.030;2022-07-10T00:58:42;3.1;;;1.6;;
15498;SDS011;7851;52.260;6.030;2022-07-10T00:59:42;3.1;;;1.8;;
15498;SDS011;7851;52.260;6.030;2022-07-10T01:00:42;3.3;;;1.5;;
15498;SDS011;7851;52.260;6.030;2022-07-10T01:01:42;3.5;;;1.7;;
15498;SDS011;7851;52.260;6.030;2022-07-10T01:02:42;4.7;;;1.7;;
15498;SDS011;7851;52.260;6.030;2022-07-10T01:03:42;3.6;;;1.8;;
15498;SDS011;7851;52.260;6.030;2022-07-10T01:04:42;2.5;;;1.5;;
15498;SDS011;7851;52.260;6.030;2022-07-10T01:05:42;5.4;;;2;;
15498;SDS011;7851;52.260;6.030;2022-07-10T01:06:42;2.1;;;1.6;;
15498;SDS011;7851;52.260;6.030;2022-07-10T01:07:42;4.1;;;1.8;;
15498;SDS011;7851;52.260;6.030;2022-07-10T01:08:42;4.8;;;1.8;;
15498;SDS011;7851;52.260;6.030;2022-07-10T01:09:42;2.8;;;1.5;;
15498;SDS011;7851;52.260;6.030;2022-07-10T01:10:42;4.7;;;1.8;;
15498;SDS011;7851;52.260;6.030;2022-07-10T01:11:42;4;;;1.5;;
15498;SDS011;7851;52.260;6.030;2022-07-10T01:12:42;5.5;;;1.5;;
15498;SDS011;7851;52.260;6.030;2022-07-10T01:13:42;1.5;;;1.3;;
15498;SDS011;7851;52.260;6.030;2022-07-10T01:14:42;2.5;;;1.5;;
15498;SDS011;7851;52.260;6.030;2022-07-10T01:15:42;2.3;;;1.6;;
15498;SDS011;7851;52.260;6.030;2022-07-10T01:16:42;3.2;;;1.6;;
15498;SDS011;7851;52.260;6.030;2022-07-10T01:17:42;2.5;;;1.7;;
15498;SDS011;7851;52.260;6.030;2022-07-10T01:18:42;6.1;;;1.5;;
15498;SDS011;7851;52.260;6.030;2022-07-10T01:19:42;4.9;;;1.6;;
15498;SDS011;7851;52.260;6.030;2022-07-10T01:20:42;3.7;;;1.7;;
15498;SDS011;7851;52.260;6.030;2022-07-10T01:21:42;2.9;;;1.9;;
15498;SDS011;7851;52.260;6.030;2022-07-10T01:22:42;2.3;;;1.4;;
15498;SDS011;7851;52.260;6.030;2022-07-10T01:23:42;5.8;;;1.6;;
15498;SDS011;7851;52.260;6.030;2022-07-10T01:24:42;2.4;;;1.6;;
15498;SDS011;7851;52.260;6.030;2022-07-10T01:25:43;3.2;;;1.7;;
15498;SDS011;7851;52.260;6.030;2022-07-10T01:26:42;4.6;;;1.8;;
15498;SDS011;7851;52.260;6.030;2022-07-10T01:27:42;2;;;1.6;;
15498;SDS011;7851;52.260;6.030;2022-07-10T01:28:43;4;;;1.8;;
15498;SDS011;7851;52.260;6.030;2022-07-10T01:29:42;1.8;;;1.6;;
15498;SDS011;7851;52.260;6.030;2022-07-10T01:30:42;5;;;1.6;;
15498;SDS011;7851;52.260;6.030;2022-07-10T01:31:42;3.7;;;1.5;;
15498;SDS011;7851;52.260;6.030;2022-07-10T01:32:42;2.8;;;1.5;;
15498;SDS011;7851;52.260;6.030;2022-07-10T01:33:42;2.4;;;1.7;;
15498;SDS011;7851;52.260;6.030;2022-07-10T01:34:42;3.1;;;1.9;;
15498;SDS011;7851;52.260;6.030;2022-07-10T01:35:42;3.4;;;1.6;;
15498;SDS011;7851;52.260;6.030;2022-07-10T01:36:42;3.3;;;1.5;;
15498;SDS011;7851;52.260;6.030;2022-07-10T01:37:42;3.2;;;1.6;;
15498;SDS011;7851;52.260;6.030;2022-07-10T01:38:42;3.1;;;1.7;;
15498;SDS011;7851;52.260;6.030;2022-07-10T01:39:42;2.4;;;1.4;;
15498;SDS011;7851;52.260;6.030;2022-07-10T01:40:42;3.5;;;1.6;;
15498;SDS011;7851;52.260;6.030;2022-07-10T01:41:42;3.5;;;1.7;;
15498;SDS011;7851;52.260;6.030;2022-07-10T01:42:42;2.3;;;1.6;;
15498;SDS011;7851;52.260;6.030;2022-07-10T01:43:42;3.4;;;1.7;;
15498;SDS011;7851;52.260;6.030;2022-07-10T01:44:42;2.5;;;1.7;;
15498;SDS011;7851;52.260;6.030;2022-07-10T01:45:42;2.7;;;1.6;;
15498;SDS011;7851;52.260;6.030;2022-07-10T01:46:42;4.3;;;1.6;;
15498;SDS011;7851;52.260;6.030;2022-07-10T01:47:42;2.5;;;1.7;;
15498;SDS011;7851;52.260;6.030;2022-07-10T01:48:42;3.1;;;1.8;;
15498;SDS011;7851;52.260;6.030;2022-07-10T01:49:42;2.9;;;1.5;;
15498;SDS011;7851;52.260;6.030;2022-07-10T01:50:43;3.2;;;1.8;;
15498;SDS011;7851;52.260;6.030;2022-07-10T01:51:42;3.2;;;1.6;;
15498;SDS011;7851;52.260;6.030;2022-07-10T01:52:42;3.3;;;1.6;;
15498;SDS011;7851;52.260;6.030;2022-07-10T01:53:42;5.1;;;1.8;;
15498;SDS011;7851;52.260;6.030;2022-07-10T01:54:44;2.7;;;1.8;;
15498;SDS011;7851;52.260;6.030;2022-07-10T01:55:42;2.1;;;1.5;;
15498;SDS011;7851;52.260;6.030;2022-07-10T01:56:42;3.3;;;1.9;;
15498;SDS011;7851;52.260;6.030;2022-07-10T01:57:42;4.5;;;1.7;;
15498;SDS011;7851;52.260;6.030;2022-07-10T01:58:42;2;;;1.7;;
15498;SDS011;7851;52.260;6.030;2022-07-10T01:59:42;3.4;;;1.8;;
15498;SDS011;7851;52.260;6.030;2022-07-10T02:00:42;4.2;;;1.7;;
15498;SDS011;7851;52.260;6.030;2022-07-10T02:01:42;3.6;;;1.9;;
15498;SDS011;7851;52.260;6.030;2022-07-10T02:02:42;4.1;;;1.8;;
15498;SDS011;7851;52.260;6.030;2022-07-10T02:03:42;4.7;;;1.6;;
15498;SDS011;7851;52.260;6.030;2022-07-10T02:04:42;7.8;;;1.6;;
15498;SDS011;7851;52.260;6.030;2022-07-10T02:05:42;2.5;;;1.5;;
15498;SDS011;7851;52.260;6.030;2022-07-10T02:06:42;4.2;;;1.7;;
15498;SDS011;7851;52.260;6.030;2022-07-10T02:07:42;3.3;;;1.8;;
15498;SDS011;7851;52.260;6.030;2022-07-10T02:08:42;3.6;;;1.6;;
15498;SDS011;7851;52.260;6.030;2022-07-10T02:09:42;4;;;1.6;;
15498;SDS011;7851;52.260;6.030;2022-07-10T02:10:42;4.3;;;1.7;;
15498;SDS011;7851;52.260;6.030;2022-07-10T02:11:42;2.1;;;1.5;;
15498;SDS011;7851;52.260;6.030;2022-07-10T02:12:42;3.4;;;1.9;;
15498;SDS011;7851;52.260;6.030;2022-07-10T02:13:42;3;;;1.6;;
15498;SDS011;7851;52.260;6.030;2022-07-10T02:14:42;5.2;;;1.6;;
15498;SDS011;7851;52.260;6.030;2022-07-10T02:15:42;3;;;1.7;;
15498;SDS011;7851;52.260;6.030;2022-07-10T02:16:42;4.5;;;1.8;;
15498;SDS011;7851;52.260;6.030;2022-07-10T02:17:42;6.2;;;2.1;;
15498;SDS011;7851;52.260;6.030;2022-07-10T02:18:42;3.1;;;1.5;;
15498;SDS011;7851;52.260;6.030;2022-07-10T02:19:42;4.6;;;1.7;;
15498;SDS011;7851;52.260;6.030;2022-07-10T02:20:42;2.6;;;1.8;;
15498;SDS011;7851;52.260;6.030;2022-07-10T02:21:42;4.7;;;1.8;;
15498;SDS011;7851;52.260;6.030;2022-07-10T02:22:44;2.3;;;1.5;;
15498;SDS011;7851;52.260;6.030;2022-07-10T02:23:42;4.8;;;1.6;;
15498;SDS011;7851;52.260;6.030;2022-07-10T02:24:42;3;;;1.7;;
15498;SDS011;7851;52.260;6.030;2022-07-10T02:25:42;1.4;;;1.3;;
15498;SDS011;7851;52.260;6.030;2022-07-10T02:26:42;3.3;;;1.9;;
15498;SDS011;7851;52.260;6.030;2022-07-10T02:27:42;2.5;;;1.5;;
15498;SDS011;7851;52.260;6.030;2022-07-10T02:28:42;3.3;;;1.7;;
15498;SDS011;7851;52.260;6.030;2022-07-10T02:29:42;2.5;;;1.5;;
15498;SDS011;7851;52.260;6.030;2022-07-10T02:30:42;3.5;;;1.7;;
15498;SDS011;7851;52.260;6.030;2022-07-10T02:31:43;1.9;;;1.5;;
15498;SDS011;7851;52.260;6.030;2022-07-10T02:32:42;4.7;;;2;;
15498;SDS011;7851;52.260;6.030;2022-07-10T02:33:42;3;;;1.5;;
15498;SDS011;7851;52.260;6.030;2022-07-10T02:34:42;7.2;;;1.8;;
15498;SDS011;7851;52.260;6.030;2022-07-10T02:35:42;4.3;;;1.9;;
15498;SDS011;7851;52.260;6.030;2022-07-10T02:36:42;4.1;;;1.8;;
15498;SDS011;7851;52.260;6.030;2022-07-10T02:37:42;2.2;;;1.7;;
15498;SDS011;7851;52.260;6.030;2022-07-10T02:38:42;3.8;;;1.6;;
15498;SDS011;7851;52.260;6.030;2022-07-10T02:39:42;6.1;;;1.9;;
15498;SDS011;7851;52.260;6.030;2022-07-10T02:40:42;2.5;;;1.4;;
15498;SDS011;7851;52.260;6.030;2022-07-10T02:41:42;4.8;;;1.7;;
15498;SDS011;7851;52.260;6.030;2022-07-10T02:42:42;3.8;;;1.8;;
15498;SDS011;7851;52.260;6.030;2022-07-10T02:43:42;1.9;;;1.7;;
15498;SDS011;7851;52.260;6.030;2022-07-10T02:44:42;3.5;;;1.7;;
15498;SDS011;7851;52.260;6.030;2022-07-10T02:45:42;3.3;;;1.7;;
15498;SDS011;7851;52.260;6.030;2022-07-10T02:46:42;2.1;;;1.8;;
15498;SDS011;7851;52.260;6.030;2022-07-10T02:47:42;3.1;;;1.7;;
15498;SDS011;7851;52.260;6.030;2022-07-10T02:48:42;3.2;;;1.5;;
15498;SDS011;7851;52.260;6.030;2022-07-10T02:49:42;4.7;;;1.7;;
15498;SDS011;7851;52.260;6.030;2022-07-10T02:50:42;4.8;;;1.8;;
15498;SDS011;7851;52.260;6.030;2022-07-10T02:51:42;2.7;;;1.6;;
15498;SDS011;7851;52.260;6.030;2022-07-10T02:52:42;3.3;;;1.7;;
15498;SDS011;7851;52.260;6.030;2022-07-10T02:53:42;1.6;;;1.4;;
15498;SDS011;7851;52.260;6.030;2022-07-10T02:54:42;3.5;;;1.5;;
15498;SDS011;7851;52.260;6.030;2022-07-10T02:55:42;7.5;;;2;;
15498;SDS011;7851;52.260;6.030;2022-07-10T02:56:42;1.8;;;1.6;;
15498;SDS011;7851;52.260;6.030;2022-07-10T02:57:42;3;;;1.9;;
15498;SDS011;7851;52.260;6.030;2022-07-10T02:58:42;7.1;;;2;;
15498;SDS011;7851;52.260;6.030;2022-07-10T02:59:42;3.8;;;1.9;;
15498;SDS011;7851;52.260;6.030;2022-07-10T03:00:42;4.5;;;1.6;;
15498;SDS011;7851;52.260;6.030;2022-07-10T03:01:42;4.2;;;1.7;;
15498;SDS011;7851;52.260;6.030;2022-07-10T03:02:42;3.4;;;2;;
15498;SDS011;7851;52.260;6.030;2022-07-10T03:03:42;3.1;;;1.8;;
15498;SDS011;7851;52.260;6.030;2022-07-10T03:04:42;2.4;;;1.8;;
15498;SDS011;7851;52.260;6.030;2022-07-10T03:05:42;3.8;;;2;;
15498;SDS011;7851;52.260;6.030;2022-07-10T03:06:42;4.3;;;1.8;;
15498;SDS011;7851;52.260;6.030;2022-07-10T03:07:42;3.5;;;1.9;;
15498;SDS011;7851;52.260;6.030;2022-07-10T03:08:42;3.3;;;1.8;;
15498;SDS011;7851;52.260;6.030;2022-07-10T03:09:42;3.1;;;1.9;;
15498;SDS011;7851;52.260;6.030;2022-07-10T03:10:42;3.2;;;1.5;;
15498;SDS011;7851;52.260;6.030;2022-07-10T03:11:42;3.6;;;2;;
15498;SDS011;7851;52.260;6.030;2022-07-10T03:12:42;3.5;;;1.7;;
15498;SDS011;7851;52.260;6.030;2022-07-10T03:13:42;2.6;;;1.7;;
15498;SDS011;7851;52.260;6.030;2022-07-10T03:14:42;6.1;;;2.1;;
15498;SDS011;7851;52.260;6.030;2022-07-10T03:15:42;4.2;;;1.7;;
15498;SDS011;7851;52.260;6.030;2022-07-10T03:16:42;3.3;;;1.8;;
15498;SDS011;7851;52.260;6.030;2022-07-10T03:17:42;1.9;;;1.4;;
15498;SDS011;7851;52.260;6.030;2022-07-10T03:18:42;1.9;;;1.5;;
15498;SDS011;7851;52.260;6.030;2022-07-10T03:19:42;3.9;;;1.7;;
15498;SDS011;7851;52.260;6.030;2022-07-10T03:20:42;2.7;;;1.7;;
15498;SDS011;7851;52.260;6.030;2022-07-10T03:21:42;2.6;;;1.8;;
15498;SDS011;7851;52.260;6.030;2022-07-10T03:22:43;2.9;;;1.7;;
15498;SDS011;7851;52.260;6.030;2022-07-10T03:23:43;3.4;;;1.8;;
15498;SDS011;7851;52.260;6.030;2022-07-10T03:24:42;3.2;;;1.7;;
15498;SDS011;7851;52.260;6.030;2022-07-10T03:25:42;2.4;;;1.8;;
15498;SDS011;7851;52.260;6.030;2022-07-10T03:26:42;3.5;;;1.7;;
15498;SDS011;7851;52.260;6.030;2022-07-10T03:27:42;3.5;;;1.6;;
15498;SDS011;7851;52.260;6.030;2022-07-10T03:28:42;2.8;;;1.6;;
15498;SDS011;7851;52.260;6.030;2022-07-10T03:29:42;10;;;2.1;;
15498;SDS011;7851;52.260;6.030;2022-07-10T03:30:42;2.6;;;1.9;;
15498;SDS011;7851;52.260;6.030;2022-07-10T03:31:42;5.2;;;1.9;;
15498;SDS011;7851;52.260;6.030;2022-07-10T03:32:42;4.6;;;1.8;;
15498;SDS011;7851;52.260;6.030;2022-07-10T03:33:42;3.1;;;1.7;;
15498;SDS011;7851;52.260;6.030;2022-07-10T03:34:42;2.2;;;1.6;;
15498;SDS011;7851;52.260;6.030;2022-07-10T03:35:42;3.3;;;1.8;;
15498;SDS011;7851;52.260;6.030;2022-07-10T03:36:42;2.4;;;1.7;;
15498;SDS011;7851;52.260;6.030;2022-07-10T03:37:42;2.9;;;1.7;;
15498;SDS011;7851;52.260;6.030;2022-07-10T03:38:42;3.3;;;1.7;;
15498;SDS011;7851;52.260;6.030;2022-07-10T03:39:42;2.2;;;1.6;;
15498;SDS011;7851;52.260;6.030;2022-07-10T03:40:42;3.7;;;1.7;;
15498;SDS011;7851;52.260;6.030;2022-07-10T03:41:42;4.3;;;1.7;;
15498;SDS011;7851;52.260;6.030;2022-07-10T03:42:42;3.9;;;1.6;;
15498;SDS011;7851;52.260;6.030;2022-07-10T03:43:42;3.6;;;1.7;;
15498;SDS011;7851;52.260;6.030;2022-07-10T03:44:42;6.2;;;1.8;;
15498;SDS011;7851;52.260;6.030;2022-07-10T03:45:42;1.9;;;1.6;;
15498;SDS011;7851;52.260;6.030;2022-07-10T03:46:42;2.4;;;1.7;;
15498;SDS011;7851;52.260;6.030;2022-07-10T03:47:42;5.3;;;1.8;;
15498;SDS011;7851;52.260;6.030;2022-07-10T03:48:42;1.8;;;1.3;;
15498;SDS011;7851;52.260;6.030;2022-07-10T03:49:42;1.4;;;1.2;;
15498;SDS011;7851;52.260;6.030;2022-07-10T03:50:42;2;;;1.5;;
15498;SDS011;7851;52.260;6.030;2022-07-10T03:51:42;4.5;;;1.9;;
15498;SDS011;7851;52.260;6.030;2022-07-10T03:52:44;2.9;;;2;;
15498;SDS011;7851;52.260;6.030;2022-07-10T03:53:42;3.6;;;1.9;;
15498;SDS011;7851;52.260;6.030;2022-07-10T03:54:42;2.3;;;1.6;;
15498;SDS011;7851;52.260;6.030;2022-07-10T03:55:42;3.2;;;1.8;;
15498;SDS011;7851;52.260;6.030;2022-07-10T03:56:42;3.5;;;1.8;;
15498;SDS011;7851;52.260;6.030;2022-07-10T03:57:42;3.1;;;1.9;;
15498;SDS011;7851;52.260;6.030;2022-07-10T03:58:42;2.4;;;1.7;;
15498;SDS011;7851;52.260;6.030;2022-07-10T03:59:42;6.1;;;2.1;;
15498;SDS011;7851;52.260;6.030;2022-07-10T04:00:42;4.2;;;1.7;;
15498;SDS011;7851;52.260;6.030;2022-07-10T04:01:42;4.8;;;1.6;;
15498;SDS011;7851;52.260;6.030;2022-07-10T04:02:42;6;;;1.8;;
15498;SDS011;7851;52.260;6.030;2022-07-10T04:03:42;2.7;;;1.6;;
15498;SDS011;7851;52.260;6.030;2022-07-10T04:04:42;5.9;;;1.9;;
15498;SDS011;7851;52.260;6.030;2022-07-10T04:05:42;3;;;1.6;;
15498;SDS011;7851;52.260;6.030;2022-07-10T04:06:42;5.2;;;1.9;;
15498;SDS011;7851;52.260;6.030;2022-07-10T04:07:42;4.7;;;1.9;;
15498;SDS011;7851;52.260;6.030;2022-07-10T04:08:42;2.7;;;1.8;;
15498;SDS011;7851;52.260;6.030;2022-07-10T04:09:42;5.4;;;1.7;;
15498;SDS011;7851;52.260;6.030;2022-07-10T04:10:42;3.1;;;1.6;;
15498;SDS011;7851;52.260;6.030;2022-07-10T04:11:42;3.7;;;1.5;;
15498;SDS011;7851;52.260;6.030;2022-07-10T04:12:42;3.6;;;1.7;;
15498;SDS011;7851;52.260;6.030;2022-07-10T04:13:42;4.6;;;1.7;;
15498;SDS011;7851;52.260;6.030;2022-07-10T04:14:42;5.5;;;1.8;;
15498;SDS011;7851;52.260;6.030;2022-07-10T04:15:42;4.9;;;1.8;;
15498;SDS011;7851;52.260;6.030;2022-07-10T04:16:42;5.3;;;1.8;;
15498;SDS011;7851;52.260;6.030;2022-07-10T04:17:42;3.4;;;1.7;;
15498;SDS011;7851;52.260;6.030;2022-07-10T04:18:42;2.7;;;1.8;;
15498;SDS011;7851;52.260;6.030;2022-07-10T04:19:42;3;;;1.8;;
15498;SDS011;7851;52.260;6.030;2022-07-10T04:20:42;3.2;;;1.7;;
15498;SDS011;7851;52.260;6.030;2022-07-10T04:21:42;10.9;;;2.1;;
15498;SDS011;7851;52.260;6.030;2022-07-10T04:22:42;4.8;;;1.9;;
15498;SDS011;7851;52.260;6.030;2022-07-10T04:23:42;4.7;;;1.7;;
15498;SDS011;7851;52.260;6.030;2022-07-10T04:24:42;5.2;;;1.8;;
15498;SDS011;7851;52.260;6.030;2022-07-10T04:25:42;5.5;;;1.6;;
15498;SDS011;7851;52.260;6.030;2022-07-10T04:26:42;4.9;;;2;;
15498;SDS011;7851;52.260;6.030;2022-07-10T04:27:42;4.8;;;1.9;;
15498;SDS011;7851;52.260;6.030;2022-07-10T04:28:42;4.8;;;1.7;;
15498;SDS011;7851;52.260;6.030;2022-07-10T04:29:42;5.7;;;1.9;;
15498;SDS011;7851;52.260;6.030;2022-07-10T04:30:42;2.8;;;1.8;;
15498;SDS011;7851;52.260;6.030;2022-07-10T04:31:42;4.1;;;1.8;;
15498;SDS011;7851;52.260;6.030;2022-07-10T04:32:42;3;;;1.8;;
15498;SDS011;7851;52.260;6.030;2022-07-10T04:33:42;4.6;;;2.1;;
15498;SDS011;7851;52.260;6.030;2022-07-10T04:34:42;5.7;;;5.2;;
15498;SDS011;7851;52.260;6.030;2022-07-10T04:35:42;6.3;;;5.3;;
15498;SDS011;7851;52.260;6.030;2022-07-10T04:36:42;6.4;;;5.5;;
15498;SDS011;7851;52.260;6.030;2022-07-10T04:37:42;7.7;;;5.3;;
15498;SDS011;7851;52.260;6.030;2022-07-10T04:38:42;5.8;;;5.3;;
15498;SDS011;7851;52.260;6.030;2022-07-10T04:39:42;6.2;;;5.7;;
15498;SDS011;7851;52.260;6.030;2022-07-10T04:40:42;5.6;;;5.2;;
15498;SDS011;7851;52.260;6.030;2022-07-10T04:41:42;5.3;;;5;;
15498;SDS011;7851;52.260;6.030;2022-07-10T04:42:42;5.6;;;5;;
15498;SDS011;7851;52.260;6.030;2022-07-10T04:43:42;3.8;;;3.6;;
15498;SDS011;7851;52.260;6.030;2022-07-10T04:44:42;6;;;3.1;;
15498;SDS011;7851;52.260;6.030;2022-07-10T04:45:42;6.2;;;3;;
15498;SDS011;7851;52.260;6.030;2022-07-10T04:46:42;5;;;2.3;;
15498;SDS011;7851;52.260;6.030;2022-07-10T04:47:43;3.5;;;2.5;;
15498;SDS011;7851;52.260;6.030;2022-07-10T04:48:42;3.3;;;3;;
15498;SDS011;7851;52.260;6.030;2022-07-10T04:49:42;3.6;;;3.3;;
15498;SDS011;7851;52.260;6.030;2022-07-10T04:50:42;6.7;;;4.9;;
15498;SDS011;7851;52.260;6.030;2022-07-10T04:51:42;5.8;;;5.3;;
15498;SDS011;7851;52.260;6.030;2022-07-10T04:52:42;6;;;5.4;;
15498;SDS011;7851;52.260;6.030;2022-07-10T04:53:42;6.7;;;5.3;;
15498;SDS011;7851;52.260;6.030;2022-07-10T04:54:42;6.4;;;5.6;;
15498;SDS011;7851;52.260;6.030;2022-07-10T04:55:42;5.7;;;5.2;;
15498;SDS011;7851;52.260;6.030;2022-07-10T04:56:42;5.5;;;5.1;;
15498;SDS011;7851;52.260;6.030;2022-07-10T04:57:42;6.4;;;5.4;;
15498;SDS011;7851;52.260;6.030;2022-07-10T04:58:42;6.6;;;6;;
15498;SDS011;7851;52.260;6.030;2022-07-10T04:59:42;6.4;;;5.9;;
15498;SDS011;7851;52.260;6.030;2022-07-10T05:00:42;7.1;;;6.4;;
15498;SDS011;7851;52.260;6.030;2022-07-10T05:01:42;9.8;;;6.1;;
15498;SDS011;7851;52.260;6.030;2022-07-10T05:02:42;6.6;;;6;;
15498;SDS011;7851;52.260;6.030;2022-07-10T05:03:42;6.7;;;6.1;;
15498;SDS011;7851;52.260;6.030;2022-07-10T05:04:42;6.9;;;5.9;;
15498;SDS011;7851;52.260;6.030;2022-07-10T05:05:42;8.8;;;5.7;;
15498;SDS011;7851;52.260;6.030;2022-07-10T05:06:42;5.2;;;4.9;;
15498;SDS011;7851;52.260;6.030;2022-07-10T05:07:42;5.5;;;5.1;;
15498;SDS011;7851;52.260;6.030;2022-07-10T05:08:42;5.4;;;5;;
15498;SDS011;7851;52.260;6.030;2022-07-10T05:09:42;5.9;;;5.4;;
15498;SDS011;7851;52.260;6.030;2022-07-10T05:10:42;5.2;;;4.8;;
15498;SDS011;7851;52.260;6.030;2022-07-10T05:11:44;5.7;;;4.8;;
15498;SDS011;7851;52.260;6.030;2022-07-10T05:12:42;6.2;;;5.1;;
15498;SDS011;7851;52.260;6.030;2022-07-10T05:13:42;5.6;;;5.1;;
15498;SDS011;7851;52.260;6.030;2022-07-10T05:14:42;6.5;;;4.8;;
15498;SDS011;7851;52.260;6.030;2022-07-10T05:15:42;5.3;;;4.9;;
15498;SDS011;7851;52.260;6.030;2022-07-10T05:16:42;5.7;;;5.3;;
15498;SDS011;7851;52.260;6.030;2022-07-10T05:17:42;5.3;;;5;;
15498;SDS011;7851;52.260;6.030;2022-07-10T05:18:42;5.8;;;5.3;;
15498;SDS011;7851;52.260;6.030;2022-07-10T05:19:42;6.6;;;6;;
15498;SDS011;7851;52.260;6.030;2022-07-10T05:20:42;6.3;;;5.9;;
15498;SDS011;7851;52.260;6.030;2022-07-10T05:21:42;6.2;;;5.7;;
15498;SDS011;7851;52.260;6.030;2022-07-10T05:22:42;8.6;;;6.6;;
15498;SDS011;7851;52.260;6.030;2022-07-10T05:23:42;6.2;;;5.7;;
15498;SDS011;7851;52.260;6.030;2022-07-10T05:24:42;7.9;;;6;;
15498;SDS011;7851;52.260;6.030;2022-07-10T05:25:42;7;;;6.3;;
15498;SDS011;7851;52.260;6.030;2022-07-10T05:26:42;6.1;;;5.5;;
15498;SDS011;7851;52.260;6.030;2022-07-10T05:27:42;6.1;;;5.5;;
15498;SDS011;7851;52.260;6.030;2022-07-10T05:28:42;6.1;;;5.5;;
15498;SDS011;7851;52.260;6.030;2022-07-10T05:29:42;6.2;;;5.7;;
15498;SDS011;7851;52.260;6.030;2022-07-10T05:30:42;8;;;5.8;;
15498;SDS011;7851;52.260;6.030;2022-07-10T05:31:42;6.3;;;5.7;;
15498;SDS011;7851;52.260;6.030;2022-07-10T05:32:42;6.3;;;5.6;;
15498;SDS011;7851;52.260;6.030;2022-07-10T05:33:42;6.2;;;5.7;;
15498;SDS011;7851;52.260;6.030;2022-07-10T05:34:42;7.3;;;5.6;;
15498;SDS011;7851;52.260;6.030;2022-07-10T05:35:42;6.2;;;5.8;;
15498;SDS011;7851;52.260;6.030;2022-07-10T05:36:42;7.1;;;6.6;;
15498;SDS011;7851;52.260;6.030;2022-07-10T05:37:42;6.4;;;5.8;;
15498;SDS011;7851;52.260;6.030;2022-07-10T05:38:42;6.2;;;5.6;;
15498;SDS011;7851;52.260;6.030;2022-07-10T05:39:42;7;;;5.9;;
15498;SDS011;7851;52.260;6.030;2022-07-10T05:40:42;6.5;;;6;;
15498;SDS011;7851;52.260;6.030;2022-07-10T05:41:42;7.3;;;6.3;;
15498;SDS011;7851;52.260;6.030;2022-07-10T05:42:42;6.2;;;5.3;;
15498;SDS011;7851;52.260;6.030;2022-07-10T05:43:42;7;;;6.3;;
15498;SDS011;7851;52.260;6.030;2022-07-10T05:44:42;8.7;;;6.4;;
15498;SDS011;7851;52.260;6.030;2022-07-10T05:45:42;6;;;5.6;;
15498;SDS011;7851;52.260;6.030;2022-07-10T05:46:42;10;;;5.8;;
15498;SDS011;7851;52.260;6.030;2022-07-10T05:47:42;6.4;;;5.9;;
15498;SDS011;7851;52.260;6.030;2022-07-10T05:48:42;6.9;;;6.3;;
15498;SDS011;7851;52.260;6.030;2022-07-10T05:49:42;5.9;;;5.6;;
15498;SDS011;7851;52.260;6.030;2022-07-10T05:50:42;6.4;;;5.8;;
15498;SDS011;7851;52.260;6.030;2022-07-10T05:51:42;5.7;;;5.3;;
15498;SDS011;7851;52.260;6.030;2022-07-10T05:52:42;7.2;;;5.3;;
15498;SDS011;7851;52.260;6.030;2022-07-10T05:53:42;6.7;;;4.8;;
15498;SDS011;7851;52.260;6.030;2022-07-10T05:54:42;5.6;;;5.1;;
15498;SDS011;7851;52.260;6.030;2022-07-10T05:55:42;7.7;;;5.2;;
15498;SDS011;7851;52.260;6.030;2022-07-10T05:56:42;5.9;;;5.3;;
15498;SDS011;7851;52.260;6.030;2022-07-10T05:57:42;6.2;;;5.4;;
15498;SDS011;7851;52.260;6.030;2022-07-10T05:58:42;6.7;;;5.4;;
15498;SDS011;7851;52.260;6.030;2022-07-10T05:59:42;7.1;;;6.4;;
15498;SDS011;7851;52.260;6.030;2022-07-10T06:00:42;7.2;;;6;;
15498;SDS011;7851;52.260;6.030;2022-07-10T06:01:42;6.2;;;5.7;;
15498;SDS011;7851;52.260;6.030;2022-07-10T06:02:42;6.5;;;5.8;;
15498;SDS011;7851;52.260;6.030;2022-07-10T06:03:42;5.9;;;5.5;;
15498;SDS011;7851;52.260;6.030;2022-07-10T06:04:42;14.3;;;6.2;;
15498;SDS011;7851;52.260;6.030;2022-07-10T06:05:42;11.1;;;6.3;;
15498;SDS011;7851;52.260;6.030;2022-07-10T06:06:42;6.3;;;5.7;;
15498;SDS011;7851;52.260;6.030;2022-07-10T06:07:42;7.2;;;6.1;;
15498;SDS011;7851;52.260;6.030;2022-07-10T06:08:42;6.3;;;5.7;;
15498;SDS011;7851;52.260;6.030;2022-07-10T06:09:42;6.5;;;6.1;;
15498;SDS011;7851;52.260;6.030;2022-07-10T06:10:42;6.3;;;5.8;;
15498;SDS011;7851;52.260;6.030;2022-07-10T06:11:44;5.8;;;5.3;;
15498;SDS011;7851;52.260;6.030;2022-07-10T06:12:42;6;;;5.6;;
15498;SDS011;7851;52.260;6.030;2022-07-10T06:13:43;6.9;;;6;;
15498;SDS011;7851;52.260;6.030;2022-07-10T06:14:42;8;;;5.8;;
15498;SDS011;7851;52.260;6.030;2022-07-10T06:15:42;6;;;5.5;;
15498;SDS011;7851;52.260;6.030;2022-07-10T06:16:42;10.2;;;5.8;;
15498;SDS011;7851;52.260;6.030;2022-07-10T06:17:42;6.8;;;5.4;;
15498;SDS011;7851;52.260;6.030;2022-07-10T06:18:42;5.9;;;5.3;;
15498;SDS011;7851;52.260;6.030;2022-07-10T06:19:42;5.8;;;5.3;;
15498;SDS011;7851;52.260;6.030;2022-07-10T06:20:42;5.3;;;4.9;;